Farley, MO

8:57 PM CDT on September 19, 2019 (GMT -0500)
Baker Circle | | Change Station
Active Advisory: Flood Warning

Elev 961 ft 39.25 °N, 94.80 °W | Updated 48 seconds ago

Clear
Clear
79.5 °F
Feels Like 83 °F
N
2.2
Wind Variable Wind from SW
Gusts 4.0 mph

Today
High -- | Low -- °F
--% Chance of Precip.
Yesterday
High -- | Low -- °F
Precip. -- in
Pressure 29.95 in
Visibility 10.0 miles
Clouds Clear
Heat Index 83 °F
Dew Point 71 °F
Humidity 76%
Rainfall 0.00 in
Snow Depth Not available.
7:04 AM 7:21 PM
Waning Gibbous, 71% visible
METAR KMCI 200153Z 15007KT 10SM CLR 26/21 A2998 RMK AO2 SLP140 T02560206 $
Pressure 29.95 in
Visibility 10.0 miles
Clouds Clear
Heat Index 83 °F
Dew Point 71 °F
Humidity 76%
Rainfall 0.00 in
Snow Depth Not available.
7:04 AM 7:21 PM
Waning Gibbous, 71% visible
METAR KMCI 200153Z 15007KT 10SM CLR 26/21 A2998 RMK AO2 SLP140 T02560206 $

Get Your Daily Forecast Email!

Thanks for signing up!

Be on the lookout for a verification email in your inbox.

You'll start receiving severe weather alerts in your inbox..

×

10-Day Weather Forecast

Almanac

Astronomy

Sep. 19, 2019 Rise Set
Actual Time
Civil Twilight
Nautical Twilight
Astronomical Twilight
Moon
Length of Visible Light
Length of Day
Tomorrow will be .
, % of the Moon is Illuminated

Today's Extremes

State Highs State Lows

Community

WunderPhotos

Category 6

Welcome to Category 6. This is the collective home for Weather Underground's featured writeups by Dr. Jeff Masters (right), Bob Henson (left), Chris Burt, and other regular contributors.

Nearby

Air Quality

  Air Quality AQ Index Pollutant
Not available.

Snow Depth

Station Depth Elevation

Earthquake Activity

City Distance Mag. Time & Date
Minimum magnitude displayed is 2.5.

Coastal Water Temperatures

Place Temperature

Stations

Nearby Weather Stations

Station Location Temp. Windchill Dew Point Humidity Wind Precip. Elev Updated Type
                   

Watches & Warnings

Flood Warning
Issued: 9:44 AM CDT Sep. 19, 2019 – National Weather Service

The Flood Warning continues for
the Missouri River at Atchison.
* From Saturday morning to Saturday September 28.
* At 9:30 am Thursday the stage was 20.6 feet.
* Flood stage is 22.0 feet.
* Minor flooding is forecast.
* Forecast... rise above flood stage by Saturday morning and continue
to rise to near 23.9 feet by Tuesday morning. The river will fall
below flood stage by Friday afternoon.
* At 22.0 feet... low-lying areas on the Missouri side of the river
begin to flood.

                       Latest
location fs stage day/time forecast

Missouri River
Atchison 22 20.6 Thu 09 am 23.9 Tuesday morning


lat... Lon 3970 9505 3964 9488 3942 9493 3942 9508 3958 9516